sensor_id;sensor_type;location;lat;lon;timestamp;temperature;humidity
13052;DHT22;6592;47.484;9.726;2024-01-06T00:00:55;5.10;99.90
13052;DHT22;6592;47.484;9.726;2024-01-06T00:03:24;5.00;99.90
13052;DHT22;6592;47.484;9.726;2024-01-06T00:05:52;5.00;99.90
13052;DHT22;6592;47.484;9.726;2024-01-06T00:08:20;5.00;99.90
13052;DHT22;6592;47.484;9.726;2024-01-06T00:10:51;5.00;99.90
13052;DHT22;6592;47.484;9.726;2024-01-06T00:13:19;5.00;99.90
13052;DHT22;6592;47.484;9.726;2024-01-06T00:15:49;5.00;99.90
13052;DHT22;6592;47.484;9.726;2024-01-06T00:18:17;5.00;99.90
13052;DHT22;6592;47.484;9.726;2024-01-06T00:20:46;5.00;99.90
13052;DHT22;6592;47.484;9.726;2024-01-06T00:23:14;5.00;99.90
13052;DHT22;6592;47.484;9.726;2024-01-06T00:25:42;5.00;99.90
13052;DHT22;6592;47.484;9.726;2024-01-06T00:28:10;5.00;99.90
13052;DHT22;6592;47.484;9.726;2024-01-06T00:30:39;5.00;99.90
13052;DHT22;6592;47.484;9.726;2024-01-06T00:33:09;5.00;99.90
13052;DHT22;6592;47.484;9.726;2024-01-06T00:35:37;5.00;99.90
13052;DHT22;6592;47.484;9.726;2024-01-06T00:38:06;4.90;99.90
13052;DHT22;6592;47.484;9.726;2024-01-06T00:40:34;4.90;99.90
13052;DHT22;6592;47.484;9.726;2024-01-06T00:43:03;4.90;99.90
13052;DHT22;6592;47.484;9.726;2024-01-06T00:45:31;4.80;99.90
13052;DHT22;6592;47.484;9.726;2024-01-06T00:47:59;4.80;99.90
13052;DHT22;6592;47.484;9.726;2024-01-06T00:50:29;4.80;99.90
13052;DHT22;6592;47.484;9.726;2024-01-06T00:52:57;4.90;99.90
13052;DHT22;6592;47.484;9.726;2024-01-06T00:55:26;4.90;99.90
13052;DHT22;6592;47.484;9.726;2024-01-06T00:57:54;4.80;99.90
13052;DHT22;6592;47.484;9.726;2024-01-06T01:00:22;4.80;99.90
13052;DHT22;6592;47.484;9.726;2024-01-06T01:02:50;4.80;99.90
13052;DHT22;6592;47.484;9.726;2024-01-06T01:05:19;4.80;99.90
13052;DHT22;6592;47.484;9.726;2024-01-06T01:07:49;4.70;99.90
13052;DHT22;6592;47.484;9.726;2024-01-06T01:10:17;4.80;99.90
13052;DHT22;6592;47.484;9.726;2024-01-06T01:12:45;4.80;99.90
13052;DHT22;6592;47.484;9.726;2024-01-06T01:15:14;4.80;99.90
13052;DHT22;6592;47.484;9.726;2024-01-06T01:17:42;4.90;99.90
13052;DHT22;6592;47.484;9.726;2024-01-06T01:20:11;4.90;99.90
13052;DHT22;6592;47.484;9.726;2024-01-06T01:22:39;4.80;99.90
13052;DHT22;6592;47.484;9.726;2024-01-06T01:25:09;4.90;99.90
13052;DHT22;6592;47.484;9.726;2024-01-06T01:27:39;4.90;99.90
13052;DHT22;6592;47.484;9.726;2024-01-06T01:30:08;5.00;99.90
13052;DHT22;6592;47.484;9.726;2024-01-06T01:32:37;5.00;99.90
13052;DHT22;6592;47.484;9.726;2024-01-06T01:35:06;5.00;99.90
13052;DHT22;6592;47.484;9.726;2024-01-06T01:37:34;5.00;99.90
13052;DHT22;6592;47.484;9.726;2024-01-06T01:40:03;5.10;99.90
13052;DHT22;6592;47.484;9.726;2024-01-06T01:42:34;5.10;99.90
13052;DHT22;6592;47.484;9.726;2024-01-06T01:45:03;5.00;99.90
13052;DHT22;6592;47.484;9.726;2024-01-06T01:47:31;5.00;99.90
13052;DHT22;6592;47.484;9.726;2024-01-06T01:50:00;4.90;99.90
13052;DHT22;6592;47.484;9.726;2024-01-06T01:52:29;4.90;99.90
13052;DHT22;6592;47.484;9.726;2024-01-06T01:54:58;4.90;99.90
13052;DHT22;6592;47.484;9.726;2024-01-06T01:57:27;4.90;99.90
13052;DHT22;6592;47.484;9.726;2024-01-06T01:59:57;4.80;99.90
13052;DHT22;6592;47.484;9.726;2024-01-06T02:02:26;4.80;99.90
13052;DHT22;6592;47.484;9.726;2024-01-06T02:04:56;4.70;99.90
13052;DHT22;6592;47.484;9.726;2024-01-06T02:07:24;4.80;99.90
13052;DHT22;6592;47.484;9.726;2024-01-06T02:09:53;4.70;99.90
13052;DHT22;6592;47.484;9.726;2024-01-06T02:12:21;4.60;99.90
13052;DHT22;6592;47.484;9.726;2024-01-06T02:14:49;4.60;99.90
13052;DHT22;6592;47.484;9.726;2024-01-06T02:17:19;4.60;99.90
13052;DHT22;6592;47.484;9.726;2024-01-06T02:19:47;4.60;99.90
13052;DHT22;6592;47.484;9.726;2024-01-06T02:22:17;4.60;99.90
13052;DHT22;6592;47.484;9.726;2024-01-06T02:24:45;4.60;99.90
13052;DHT22;6592;47.484;9.726;2024-01-06T02:27:14;4.60;99.90
13052;DHT22;6592;47.484;9.726;2024-01-06T02:29:42;4.60;99.90
13052;DHT22;6592;47.484;9.726;2024-01-06T02:32:11;4.70;99.90
13052;DHT22;6592;47.484;9.726;2024-01-06T02:34:39;4.70;99.90
13052;DHT22;6592;47.484;9.726;2024-01-06T02:37:07;4.60;99.90
13052;DHT22;6592;47.484;9.726;2024-01-06T02:39:37;4.60;99.90
13052;DHT22;6592;47.484;9.726;2024-01-06T02:42:06;4.70;99.90
13052;DHT22;6592;47.484;9.726;2024-01-06T02:44:34;4.70;99.90
13052;DHT22;6592;47.484;9.726;2024-01-06T02:47:03;4.70;99.90
13052;DHT22;6592;47.484;9.726;2024-01-06T02:49:32;4.60;99.90
13052;DHT22;6592;47.484;9.726;2024-01-06T02:52:00;4.60;99.90
13052;DHT22;6592;47.484;9.726;2024-01-06T02:54:29;4.60;99.90
13052;DHT22;6592;47.484;9.726;2024-01-06T02:56:59;4.60;99.90
13052;DHT22;6592;47.484;9.726;2024-01-06T02:59:27;4.60;99.90
13052;DHT22;6592;47.484;9.726;2024-01-06T03:01:55;4.50;99.90
13052;DHT22;6592;47.484;9.726;2024-01-06T03:04:24;4.60;99.90
13052;DHT22;6592;47.484;9.726;2024-01-06T03:06:52;4.50;99.90
13052;DHT22;6592;47.484;9.726;2024-01-06T03:09:21;4.50;99.90
13052;DHT22;6592;47.484;9.726;2024-01-06T03:11:49;4.50;99.90
13052;DHT22;6592;47.484;9.726;2024-01-06T03:14:19;4.50;99.90
13052;DHT22;6592;47.484;9.726;2024-01-06T03:16:48;4.50;99.90
13052;DHT22;6592;47.484;9.726;2024-01-06T03:19:16;4.40;99.90
13052;DHT22;6592;47.484;9.726;2024-01-06T03:21:45;4.40;99.90
13052;DHT22;6592;47.484;9.726;2024-01-06T03:24:13;4.40;99.90
13052;DHT22;6592;47.484;9.726;2024-01-06T03:26:42;4.40;99.90
13052;DHT22;6592;47.484;9.726;2024-01-06T03:29:10;4.40;99.90
13052;DHT22;6592;47.484;9.726;2024-01-06T03:31:43;4.40;99.90
13052;DHT22;6592;47.484;9.726;2024-01-06T03:34:12;4.40;99.90
13052;DHT22;6592;47.484;9.726;2024-01-06T03:36:41;4.40;99.90
13052;DHT22;6592;47.484;9.726;2024-01-06T03:39:09;4.40;99.90
13052;DHT22;6592;47.484;9.726;2024-01-06T03:41:39;4.40;99.90
13052;DHT22;6592;47.484;9.726;2024-01-06T03:44:07;4.40;99.90
13052;DHT22;6592;47.484;9.726;2024-01-06T03:46:36;4.40;99.90
13052;DHT22;6592;47.484;9.726;2024-01-06T03:49:05;4.40;99.90
13052;DHT22;6592;47.484;9.726;2024-01-06T03:51:34;4.40;99.90
13052;DHT22;6592;47.484;9.726;2024-01-06T03:54:03;4.40;99.90
13052;DHT22;6592;47.484;9.726;2024-01-06T03:56:31;4.30;99.90
13052;DHT22;6592;47.484;9.726;2024-01-06T03:58:59;4.30;99.90
13052;DHT22;6592;47.484;9.726;2024-01-06T04:01:27;4.30;99.90
13052;DHT22;6592;47.484;9.726;2024-01-06T04:03:56;4.30;99.90
13052;DHT22;6592;47.484;9.726;2024-01-06T04:06:26;4.20;99.90
13052;DHT22;6592;47.484;9.726;2024-01-06T04:08:54;4.20;99.90
13052;DHT22;6592;47.484;9.726;2024-01-06T04:11:23;4.20;99.90
13052;DHT22;6592;47.484;9.726;2024-01-06T04:13:51;4.20;99.90
13052;DHT22;6592;47.484;9.726;2024-01-06T04:16:19;4.20;99.90
13052;DHT22;6592;47.484;9.726;2024-01-06T04:18:48;4.20;99.90
13052;DHT22;6592;47.484;9.726;2024-01-06T04:21:16;4.20;99.90
13052;DHT22;6592;47.484;9.726;2024-01-06T04:23:46;4.10;99.90
13052;DHT22;6592;47.484;9.726;2024-01-06T04:26:15;4.10;99.90
13052;DHT22;6592;47.484;9.726;2024-01-06T04:28:43;4.10;99.90
13052;DHT22;6592;47.484;9.726;2024-01-06T04:31:12;4.10;99.90
13052;DHT22;6592;47.484;9.726;2024-01-06T04:33:40;4.10;99.90
13052;DHT22;6592;47.484;9.726;2024-01-06T04:36:08;4.10;99.90
13052;DHT22;6592;47.484;9.726;2024-01-06T04:38:37;4.10;99.90
13052;DHT22;6592;47.484;9.726;2024-01-06T04:41:07;4.20;99.90
13052;DHT22;6592;47.484;9.726;2024-01-06T04:43:35;4.20;99.90
13052;DHT22;6592;47.484;9.726;2024-01-06T04:46:03;4.20;99.90
13052;DHT22;6592;47.484;9.726;2024-01-06T04:48:31;4.10;99.90
13052;DHT22;6592;47.484;9.726;2024-01-06T04:51:00;4.10;99.90
13052;DHT22;6592;47.484;9.726;2024-01-06T04:53:30;4.10;99.90
13052;DHT22;6592;47.484;9.726;2024-01-06T04:55:58;4.10;99.90
13052;DHT22;6592;47.484;9.726;2024-01-06T04:58:28;4.10;99.90
13052;DHT22;6592;47.484;9.726;2024-01-06T05:00:56;4.10;99.90
13052;DHT22;6592;47.484;9.726;2024-01-06T05:03:25;4.10;99.90
13052;DHT22;6592;47.484;9.726;2024-01-06T05:05:53;4.10;99.90
13052;DHT22;6592;47.484;9.726;2024-01-06T05:08:22;4.20;99.90
13052;DHT22;6592;47.484;9.726;2024-01-06T05:10:52;4.10;99.90
13052;DHT22;6592;47.484;9.726;2024-01-06T05:13:21;4.20;99.90
13052;DHT22;6592;47.484;9.726;2024-01-06T05:15:51;4.00;99.90
13052;DHT22;6592;47.484;9.726;2024-01-06T05:18:19;4.10;99.90
13052;DHT22;6592;47.484;9.726;2024-01-06T05:20:48;4.10;99.90
13052;DHT22;6592;47.484;9.726;2024-01-06T05:23:16;4.10;99.90
13052;DHT22;6592;47.484;9.726;2024-01-06T05:25:45;4.10;99.90
13052;DHT22;6592;47.484;9.726;2024-01-06T05:28:13;4.10;99.90
13052;DHT22;6592;47.484;9.726;2024-01-06T05:30:41;4.10;99.90
13052;DHT22;6592;47.484;9.726;2024-01-06T05:33:13;4.10;99.90
13052;DHT22;6592;47.484;9.726;2024-01-06T05:35:42;4.10;99.90
13052;DHT22;6592;47.484;9.726;2024-01-06T05:38:10;4.10;99.90
13052;DHT22;6592;47.484;9.726;2024-01-06T05:40:39;4.10;99.90
13052;DHT22;6592;47.484;9.726;2024-01-06T05:43:07;4.10;99.90
13052;DHT22;6592;47.484;9.726;2024-01-06T05:45:35;4.00;99.90
13052;DHT22;6592;47.484;9.726;2024-01-06T05:48:06;4.00;99.90
13052;DHT22;6592;47.484;9.726;2024-01-06T05:50:38;4.00;99.90
13052;DHT22;6592;47.484;9.726;2024-01-06T05:53:07;4.00;99.90
13052;DHT22;6592;47.484;9.726;2024-01-06T05:55:38;4.10;99.90
13052;DHT22;6592;47.484;9.726;2024-01-06T05:58:06;4.10;99.90
13052;DHT22;6592;47.484;9.726;2024-01-06T06:00:34;4.10;99.90
13052;DHT22;6592;47.484;9.726;2024-01-06T06:03:03;4.00;99.90
13052;DHT22;6592;47.484;9.726;2024-01-06T06:05:32;4.00;99.90
13052;DHT22;6592;47.484;9.726;2024-01-06T06:08:02;4.00;99.90
13052;DHT22;6592;47.484;9.726;2024-01-06T06:10:30;4.00;99.90
13052;DHT22;6592;47.484;9.726;2024-01-06T06:13:08;3.90;99.90
13052;DHT22;6592;47.484;9.726;2024-01-06T06:15:37;4.00;99.90
13052;DHT22;6592;47.484;9.726;2024-01-06T06:18:06;4.00;99.90
13052;DHT22;6592;47.484;9.726;2024-01-06T06:20:34;4.00;99.90
13052;DHT22;6592;47.484;9.726;2024-01-06T06:23:04;4.00;99.90
13052;DHT22;6592;47.484;9.726;2024-01-06T06:25:32;4.00;99.90
13052;DHT22;6592;47.484;9.726;2024-01-06T06:28:00;4.00;99.90
13052;DHT22;6592;47.484;9.726;2024-01-06T06:30:30;4.10;99.90
13052;DHT22;6592;47.484;9.726;2024-01-06T06:32:59;4.10;99.90
13052;DHT22;6592;47.484;9.726;2024-01-06T06:35:27;4.10;99.90
13052;DHT22;6592;47.484;9.726;2024-01-06T06:37:55;4.10;99.90
13052;DHT22;6592;47.484;9.726;2024-01-06T06:40:25;4.10;99.90
13052;DHT22;6592;47.484;9.726;2024-01-06T06:42:53;4.10;99.90
13052;DHT22;6592;47.484;9.726;2024-01-06T06:45:22;4.10;99.90
13052;DHT22;6592;47.484;9.726;2024-01-06T06:47:50;4.10;99.90
13052;DHT22;6592;47.484;9.726;2024-01-06T06:50:19;4.10;99.90
13052;DHT22;6592;47.484;9.726;2024-01-06T06:52:47;4.10;99.90
13052;DHT22;6592;47.484;9.726;2024-01-06T06:55:15;4.10;99.90
13052;DHT22;6592;47.484;9.726;2024-01-06T06:57:46;4.10;99.90
13052;DHT22;6592;47.484;9.726;2024-01-06T07:00:14;4.10;99.90
13052;DHT22;6592;47.484;9.726;2024-01-06T07:02:44;4.10;99.90
13052;DHT22;6592;47.484;9.726;2024-01-06T07:05:12;4.10;99.90
13052;DHT22;6592;47.484;9.726;2024-01-06T07:07:41;4.10;99.90
13052;DHT22;6592;47.484;9.726;2024-01-06T07:10:11;4.10;99.90
13052;DHT22;6592;47.484;9.726;2024-01-06T07:12:39;4.10;99.90
13052;DHT22;6592;47.484;9.726;2024-01-06T07:15:09;4.20;99.90
13052;DHT22;6592;47.484;9.726;2024-01-06T07:17:38;4.20;99.90
13052;DHT22;6592;47.484;9.726;2024-01-06T07:20:07;4.20;99.90
13052;DHT22;6592;47.484;9.726;2024-01-06T07:22:36;4.20;99.90
13052;DHT22;6592;47.484;9.726;2024-01-06T07:25:05;4.20;99.90
13052;DHT22;6592;47.484;9.726;2024-01-06T07:27:34;4.20;99.90
13052;DHT22;6592;47.484;9.726;2024-01-06T07:30:03;4.20;99.90
13052;DHT22;6592;47.484;9.726;2024-01-06T07:32:33;4.20;99.90
13052;DHT22;6592;47.484;9.726;2024-01-06T07:35:01;4.20;99.90
13052;DHT22;6592;47.484;9.726;2024-01-06T07:37:34;4.20;99.90
13052;DHT22;6592;47.484;9.726;2024-01-06T07:40:02;4.20;99.90
13052;DHT22;6592;47.484;9.726;2024-01-06T07:42:30;4.20;99.90
13052;DHT22;6592;47.484;9.726;2024-01-06T07:44:58;4.20;99.90
13052;DHT22;6592;47.484;9.726;2024-01-06T07:47:27;4.20;99.90
13052;DHT22;6592;47.484;9.726;2024-01-06T07:49:56;4.30;99.90
13052;DHT22;6592;47.484;9.726;2024-01-06T07:52:25;4.30;99.90
13052;DHT22;6592;47.484;9.726;2024-01-06T07:54:53;4.30;99.90
13052;DHT22;6592;47.484;9.726;2024-01-06T07:57:22;4.20;99.90
13052;DHT22;6592;47.484;9.726;2024-01-06T07:59:51;4.20;99.90
13052;DHT22;6592;47.484;9.726;2024-01-06T08:02:19;4.20;99.90
13052;DHT22;6592;47.484;9.726;2024-01-06T08:04:48;4.20;99.90
13052;DHT22;6592;47.484;9.726;2024-01-06T08:07:18;4.20;99.90
13052;DHT22;6592;47.484;9.726;2024-01-06T08:09:46;4.20;99.90
13052;DHT22;6592;47.484;9.726;2024-01-06T08:12:15;4.20;99.90
13052;DHT22;6592;47.484;9.726;2024-01-06T08:14:43;4.20;99.90
13052;DHT22;6592;47.484;9.726;2024-01-06T08:17:11;4.20;99.90
13052;DHT22;6592;47.484;9.726;2024-01-06T08:19:44;4.20;99.90
13052;DHT22;6592;47.484;9.726;2024-01-06T08:22:13;4.20;99.90
13052;DHT22;6592;47.484;9.726;2024-01-06T08:24:43;4.20;99.90
13052;DHT22;6592;47.484;9.726;2024-01-06T08:27:11;4.20;99.90
13052;DHT22;6592;47.484;9.726;2024-01-06T08:29:40;4.30;99.90
13052;DHT22;6592;47.484;9.726;2024-01-06T08:32:08;4.30;99.90
13052;DHT22;6592;47.484;9.726;2024-01-06T08:34:37;4.30;99.90
13052;DHT22;6592;47.484;9.726;2024-01-06T08:37:05;4.30;99.90
13052;DHT22;6592;47.484;9.726;2024-01-06T08:39:33;4.40;99.90
13052;DHT22;6592;47.484;9.726;2024-01-06T08:42:03;4.30;99.90
13052;DHT22;6592;47.484;9.726;2024-01-06T08:44:32;4.40;99.90
13052;DHT22;6592;47.484;9.726;2024-01-06T08:47:00;4.50;99.90
13052;DHT22;6592;47.484;9.726;2024-01-06T08:49:29;4.50;99.90
13052;DHT22;6592;47.484;9.726;2024-01-06T08:51:58;4.50;99.90
13052;DHT22;6592;47.484;9.726;2024-01-06T08:54:27;4.60;99.90
13052;DHT22;6592;47.484;9.726;2024-01-06T08:56:55;4.60;99.90
13052;DHT22;6592;47.484;9.726;2024-01-06T08:59:25;4.60;99.90
13052;DHT22;6592;47.484;9.726;2024-01-06T09:01:53;4.60;99.90
13052;DHT22;6592;47.484;9.726;2024-01-06T09:04:22;4.60;99.90
13052;DHT22;6592;47.484;9.726;2024-01-06T09:06:51;4.60;99.90
13052;DHT22;6592;47.484;9.726;2024-01-06T09:09:19;4.60;99.90
13052;DHT22;6592;47.484;9.726;2024-01-06T09:11:48;4.70;99.90
13052;DHT22;6592;47.484;9.726;2024-01-06T09:14:17;4.70;99.90
13052;DHT22;6592;47.484;9.726;2024-01-06T09:16:46;4.70;99.90
13052;DHT22;6592;47.484;9.726;2024-01-06T09:19:15;4.80;99.90
13052;DHT22;6592;47.484;9.726;2024-01-06T09:21:43;4.80;99.90
13052;DHT22;6592;47.484;9.726;2024-01-06T09:24:12;4.90;99.90
13052;DHT22;6592;47.484;9.726;2024-01-06T09:26:40;4.90;99.90
13052;DHT22;6592;47.484;9.726;2024-01-06T09:29:08;4.90;99.90
13052;DHT22;6592;47.484;9.726;2024-01-06T09:31:39;5.00;99.90
13052;DHT22;6592;47.484;9.726;2024-01-06T09:34:10;5.00;99.90
13052;DHT22;6592;47.484;9.726;2024-01-06T09:36:39;5.10;99.90
13052;DHT22;6592;47.484;9.726;2024-01-06T09:39:07;5.20;99.90
13052;DHT22;6592;47.484;9.726;2024-01-06T09:41:36;5.30;99.90
13052;DHT22;6592;47.484;9.726;2024-01-06T09:44:04;5.20;99.90
13052;DHT22;6592;47.484;9.726;2024-01-06T09:46:33;5.30;99.90
13052;DHT22;6592;47.484;9.726;2024-01-06T09:49:02;5.30;99.90
13052;DHT22;6592;47.484;9.726;2024-01-06T09:51:34;5.40;99.90
13052;DHT22;6592;47.484;9.726;2024-01-06T09:54:08;5.50;99.90
13052;DHT22;6592;47.484;9.726;2024-01-06T09:56:38;5.70;99.90
13052;DHT22;6592;47.484;9.726;2024-01-06T09:59:07;5.80;99.90
13052;DHT22;6592;47.484;9.726;2024-01-06T10:01:35;5.90;99.90
13052;DHT22;6592;47.484;9.726;2024-01-06T10:04:03;6.00;99.90
13052;DHT22;6592;47.484;9.726;2024-01-06T10:06:33;6.00;99.90
13052;DHT22;6592;47.484;9.726;2024-01-06T10:09:03;6.00;99.90
13052;DHT22;6592;47.484;9.726;2024-01-06T10:11:32;6.10;99.90
13052;DHT22;6592;47.484;9.726;2024-01-06T10:14:03;6.20;99.90
13052;DHT22;6592;47.484;9.726;2024-01-06T10:16:34;6.10;99.90
13052;DHT22;6592;47.484;9.726;2024-01-06T10:19:03;6.20;99.90
13052;DHT22;6592;47.484;9.726;2024-01-06T10:21:33;6.20;99.90
13052;DHT22;6592;47.484;9.726;2024-01-06T10:24:02;6.30;99.90
13052;DHT22;6592;47.484;9.726;2024-01-06T10:26:30;6.30;99.90
13052;DHT22;6592;47.484;9.726;2024-01-06T10:28:59;6.40;99.90
13052;DHT22;6592;47.484;9.726;2024-01-06T10:31:27;6.40;99.90
13052;DHT22;6592;47.484;9.726;2024-01-06T10:33:56;6.40;99.90
13052;DHT22;6592;47.484;9.726;2024-01-06T10:36:25;6.40;99.90
13052;DHT22;6592;47.484;9.726;2024-01-06T10:38:56;6.50;99.90
13052;DHT22;6592;47.484;9.726;2024-01-06T10:41:24;6.60;99.90
13052;DHT22;6592;47.484;9.726;2024-01-06T10:43:54;6.60;99.90
13052;DHT22;6592;47.484;9.726;2024-01-06T10:46:23;6.70;99.90
13052;DHT22;6592;47.484;9.726;2024-01-06T10:48:52;6.90;99.90
13052;DHT22;6592;47.484;9.726;2024-01-06T10:51:25;7.00;99.90
13052;DHT22;6592;47.484;9.726;2024-01-06T10:53:58;7.10;99.90
13052;DHT22;6592;47.484;9.726;2024-01-06T10:56:29;7.20;99.90
13052;DHT22;6592;47.484;9.726;2024-01-06T10:58:58;7.40;99.90
13052;DHT22;6592;47.484;9.726;2024-01-06T11:01:29;7.50;99.90
13052;DHT22;6592;47.484;9.726;2024-01-06T11:03:59;7.50;99.90
13052;DHT22;6592;47.484;9.726;2024-01-06T11:06:28;7.60;99.90
13052;DHT22;6592;47.484;9.726;2024-01-06T11:09:06;7.50;99.90
13052;DHT22;6592;47.484;9.726;2024-01-06T11:11:38;7.50;99.90
13052;DHT22;6592;47.484;9.726;2024-01-06T11:14:20;7.50;99.90
13052;DHT22;6592;47.484;9.726;2024-01-06T11:16:49;7.60;99.90
13052;DHT22;6592;47.484;9.726;2024-01-06T11:19:42;7.60;99.90
13052;DHT22;6592;47.484;9.726;2024-01-06T11:22:25;7.60;99.90
13052;DHT22;6592;47.484;9.726;2024-01-06T11:25:03;7.60;99.90
13052;DHT22;6592;47.484;9.726;2024-01-06T11:27:33;7.60;99.90
13052;DHT22;6592;47.484;9.726;2024-01-06T11:30:03;7.60;99.90
13052;DHT22;6592;47.484;9.726;2024-01-06T11:32:34;7.60;99.90
13052;DHT22;6592;47.484;9.726;2024-01-06T11:35:06;7.70;99.90
13052;DHT22;6592;47.484;9.726;2024-01-06T11:37:39;7.60;99.90
13052;DHT22;6592;47.484;9.726;2024-01-06T11:40:25;7.60;99.90
13052;DHT22;6592;47.484;9.726;2024-01-06T11:42:58;7.60;99.90
13052;DHT22;6592;47.484;9.726;2024-01-06T11:45:27;7.70;99.90
13052;DHT22;6592;47.484;9.726;2024-01-06T11:47:57;7.70;99.90
13052;DHT22;6592;47.484;9.726;2024-01-06T11:50:27;7.70;99.90
13052;DHT22;6592;47.484;9.726;2024-01-06T11:52:56;7.70;99.90
13052;DHT22;6592;47.484;9.726;2024-01-06T11:55:26;7.80;99.90
13052;DHT22;6592;47.484;9.726;2024-01-06T11:57:55;7.80;99.90
13052;DHT22;6592;47.484;9.726;2024-01-06T12:00:24;7.80;99.90
13052;DHT22;6592;47.484;9.726;2024-01-06T12:02:56;7.70;99.90
13052;DHT22;6592;47.484;9.726;2024-01-06T12:05:25;7.70;99.90
13052;DHT22;6592;47.484;9.726;2024-01-06T12:07:54;7.60;99.90
13052;DHT22;6592;47.484;9.726;2024-01-06T12:10:24;7.60;99.90
13052;DHT22;6592;47.484;9.726;2024-01-06T12:13:01;7.50;99.90
13052;DHT22;6592;47.484;9.726;2024-01-06T12:15:31;7.40;99.90
13052;DHT22;6592;47.484;9.726;2024-01-06T12:18:03;7.40;99.90
13052;DHT22;6592;47.484;9.726;2024-01-06T12:20:32;7.30;99.90
13052;DHT22;6592;47.484;9.726;2024-01-06T12:23:00;7.30;99.90
13052;DHT22;6592;47.484;9.726;2024-01-06T12:25:34;7.30;99.90
13052;DHT22;6592;47.484;9.726;2024-01-06T12:28:08;7.30;99.90
13052;DHT22;6592;47.484;9.726;2024-01-06T12:30:38;7.20;99.90
13052;DHT22;6592;47.484;9.726;2024-01-06T12:33:07;7.20;99.90
13052;DHT22;6592;47.484;9.726;2024-01-06T12:35:35;7.20;99.90
13052;DHT22;6592;47.484;9.726;2024-01-06T12:38:04;7.10;99.90
13052;DHT22;6592;47.484;9.726;2024-01-06T12:40:35;7.10;99.90
13052;DHT22;6592;47.484;9.726;2024-01-06T12:43:04;7.10;99.90
13052;DHT22;6592;47.484;9.726;2024-01-06T12:45:34;7.10;99.90
13052;DHT22;6592;47.484;9.726;2024-01-06T12:48:03;7.00;99.90
13052;DHT22;6592;47.484;9.726;2024-01-06T12:50:31;7.10;99.90
13052;DHT22;6592;47.484;9.726;2024-01-06T12:53:00;7.00;99.90
13052;DHT22;6592;47.484;9.726;2024-01-06T12:55:28;7.00;99.90
13052;DHT22;6592;47.484;9.726;2024-01-06T12:57:56;6.90;99.90
13052;DHT22;6592;47.484;9.726;2024-01-06T13:00:28;6.80;99.90
13052;DHT22;6592;47.484;9.726;2024-01-06T13:02:59;6.80;99.90
13052;DHT22;6592;47.484;9.726;2024-01-06T13:05:28;6.70;99.90
13052;DHT22;6592;47.484;9.726;2024-01-06T13:07:56;6.60;99.90
13052;DHT22;6592;47.484;9.726;2024-01-06T13:10:24;6.60;99.90
13052;DHT22;6592;47.484;9.726;2024-01-06T13:12:53;6.60;99.90
13052;DHT22;6592;47.484;9.726;2024-01-06T13:15:21;6.60;99.90
13052;DHT22;6592;47.484;9.726;2024-01-06T13:17:50;6.60;99.90
13052;DHT22;6592;47.484;9.726;2024-01-06T13:20:21;6.60;99.90
13052;DHT22;6592;47.484;9.726;2024-01-06T13:22:49;6.50;99.90
13052;DHT22;6592;47.484;9.726;2024-01-06T13:25:18;6.50;99.90
13052;DHT22;6592;47.484;9.726;2024-01-06T13:27:47;6.50;99.90
13052;DHT22;6592;47.484;9.726;2024-01-06T13:30:15;6.50;99.90
13052;DHT22;6592;47.484;9.726;2024-01-06T13:32:45;6.50;99.90
13052;DHT22;6592;47.484;9.726;2024-01-06T13:35:15;6.50;99.90
13052;DHT22;6592;47.484;9.726;2024-01-06T13:37:45;6.40;99.90
13052;DHT22;6592;47.484;9.726;2024-01-06T13:40:15;6.40;99.90
13052;DHT22;6592;47.484;9.726;2024-01-06T13:42:46;6.40;99.90
13052;DHT22;6592;47.484;9.726;2024-01-06T13:45:15;6.30;99.90
13052;DHT22;6592;47.484;9.726;2024-01-06T13:47:44;6.30;99.90
13052;DHT22;6592;47.484;9.726;2024-01-06T13:50:16;6.30;99.90
13052;DHT22;6592;47.484;9.726;2024-01-06T13:52:45;6.20;99.90
13052;DHT22;6592;47.484;9.726;2024-01-06T13:55:15;6.20;99.90
13052;DHT22;6592;47.484;9.726;2024-01-06T13:57:43;6.20;99.90
13052;DHT22;6592;47.484;9.726;2024-01-06T14:00:12;6.20;99.90
13052;DHT22;6592;47.484;9.726;2024-01-06T14:02:47;6.10;99.90
13052;DHT22;6592;47.484;9.726;2024-01-06T14:05:15;6.10;99.90
13052;DHT22;6592;47.484;9.726;2024-01-06T14:07:45;6.10;99.90
13052;DHT22;6592;47.484;9.726;2024-01-06T14:10:16;6.10;99.90
13052;DHT22;6592;47.484;9.726;2024-01-06T14:12:44;6.10;99.90
13052;DHT22;6592;47.484;9.726;2024-01-06T14:15:13;6.10;99.90
13052;DHT22;6592;47.484;9.726;2024-01-06T14:17:41;6.10;99.90
13052;DHT22;6592;47.484;9.726;2024-01-06T14:20:16;6.10;99.90
13052;DHT22;6592;47.484;9.726;2024-01-06T14:22:47;6.10;99.90
13052;DHT22;6592;47.484;9.726;2024-01-06T14:25:16;6.10;99.90
13052;DHT22;6592;47.484;9.726;2024-01-06T14:27:46;6.00;99.90
13052;DHT22;6592;47.484;9.726;2024-01-06T14:30:14;6.00;99.90
13052;DHT22;6592;47.484;9.726;2024-01-06T14:32:43;5.90;99.90
13052;DHT22;6592;47.484;9.726;2024-01-06T14:35:12;5.90;99.90
13052;DHT22;6592;47.484;9.726;2024-01-06T14:37:42;5.90;99.90
13052;DHT22;6592;47.484;9.726;2024-01-06T14:40:13;5.80;99.90
13052;DHT22;6592;47.484;9.726;2024-01-06T14:42:42;5.80;99.90
13052;DHT22;6592;47.484;9.726;2024-01-06T14:45:11;5.80;99.90
13052;DHT22;6592;47.484;9.726;2024-01-06T14:47:39;5.80;99.90
13052;DHT22;6592;47.484;9.726;2024-01-06T14:50:08;5.80;99.90
13052;DHT22;6592;47.484;9.726;2024-01-06T14:52:37;5.80;99.90
13052;DHT22;6592;47.484;9.726;2024-01-06T14:55:06;5.70;99.90
13052;DHT22;6592;47.484;9.726;2024-01-06T14:57:36;5.70;99.90
13052;DHT22;6592;47.484;9.726;2024-01-06T15:00:06;5.60;99.90
13052;DHT22;6592;47.484;9.726;2024-01-06T15:02:37;5.50;99.90
13052;DHT22;6592;47.484;9.726;2024-01-06T15:05:07;5.40;99.90
13052;DHT22;6592;47.484;9.726;2024-01-06T15:07:37;5.40;99.90
13052;DHT22;6592;47.484;9.726;2024-01-06T15:10:06;5.30;99.90
13052;DHT22;6592;47.484;9.726;2024-01-06T15:12:38;5.20;99.90
13052;DHT22;6592;47.484;9.726;2024-01-06T15:15:07;5.20;99.90
13052;DHT22;6592;47.484;9.726;2024-01-06T15:17:35;5.20;99.90
13052;DHT22;6592;47.484;9.726;2024-01-06T15:20:06;5.20;99.90
13052;DHT22;6592;47.484;9.726;2024-01-06T15:22:34;5.30;99.90
13052;DHT22;6592;47.484;9.726;2024-01-06T15:25:07;5.30;99.90
13052;DHT22;6592;47.484;9.726;2024-01-06T15:27:38;5.20;99.90
13052;DHT22;6592;47.484;9.726;2024-01-06T15:30:07;5.20;99.90
13052;DHT22;6592;47.484;9.726;2024-01-06T15:32:36;5.20;99.90
13052;DHT22;6592;47.484;9.726;2024-01-06T15:35:06;5.20;99.90
13052;DHT22;6592;47.484;9.726;2024-01-06T15:37:34;5.20;99.90
13052;DHT22;6592;47.484;9.726;2024-01-06T15:40:04;5.10;99.90
13052;DHT22;6592;47.484;9.726;2024-01-06T15:42:32;5.00;99.90
13052;DHT22;6592;47.484;9.726;2024-01-06T15:45:03;5.00;99.90
13052;DHT22;6592;47.484;9.726;2024-01-06T15:47:31;5.00;99.90
13052;DHT22;6592;47.484;9.726;2024-01-06T15:50:00;5.00;99.90
13052;DHT22;6592;47.484;9.726;2024-01-06T15:52:30;5.00;99.90
13052;DHT22;6592;47.484;9.726;2024-01-06T15:54:58;5.10;99.90
13052;DHT22;6592;47.484;9.726;2024-01-06T15:57:27;5.10;99.90
13052;DHT22;6592;47.484;9.726;2024-01-06T15:59:57;5.10;99.90
13052;DHT22;6592;47.484;9.726;2024-01-06T16:02:27;5.10;99.90
13052;DHT22;6592;47.484;9.726;2024-01-06T16:04:55;5.10;99.90
13052;DHT22;6592;47.484;9.726;2024-01-06T16:07:24;5.10;99.90
13052;DHT22;6592;47.484;9.726;2024-01-06T16:09:52;5.10;99.90
13052;DHT22;6592;47.484;9.726;2024-01-06T16:12:21;5.10;99.90
13052;DHT22;6592;47.484;9.726;2024-01-06T16:14:52;5.00;99.90